TimeCDT,TemperatureF,Dew PointF,Humidity,Sea Level PressureIn,VisibilityMPH,Wind Direction,Wind SpeedMPH,Gust SpeedMPH,PrecipitationIn,Events,Conditions,WindDirDegrees,DateUTC
12:26 AM,37.4,21.2,52,29.90,10.0,NW,8.1,-,N/A,,Overcast,310,2012-11-01 05:26:00
12:53 AM,37.9,21.0,51,29.95,10.0,NNW,15.0,18.4,N/A,,Overcast,340,2012-11-01 05:53:00
1:53 AM,36.0,27.0,70,29.96,10.0,NW,13.8,-,N/A,,Overcast,320,2012-11-01 06:53:00
2:51 AM,35.6,28.4,75,29.92,10.0,NNW,16.1,-,N/A,,Overcast,330,2012-11-01 07:51:00
2:53 AM,36.0,28.9,76,29.96,10.0,NNW,16.1,-,N/A,,Overcast,330,2012-11-01 07:53:00
3:53 AM,35.1,30.9,85,29.95,10.0,NNW,11.5,19.6,0.00,Rain,Light Rain,330,2012-11-01 08:53:00
4:53 AM,36.0,32.0,86,29.96,10.0,NW,10.4,-,0.00,,Overcast,320,2012-11-01 09:53:00
5:53 AM,36.0,30.9,82,29.97,10.0,NNW,17.3,-,N/A,,Overcast,340,2012-11-01 10:53:00
6:53 AM,35.1,30.0,82,29.97,10.0,NW,12.7,-,0.00,,Overcast,320,2012-11-01 11:53:00
7:05 AM,35.6,30.2,81,29.93,10.0,NW,15.0,-,0.00,,Overcast,310,2012-11-01 12:05:00
7:29 AM,35.6,28.4,75,29.93,10.0,NW,13.8,-,0.00,,Overcast,310,2012-11-01 12:29:00
7:53 AM,34.0,28.9,82,29.99,10.0,NW,15.0,21.9,0.00,,Overcast,320,2012-11-01 12:53:00
8:53 AM,34.0,28.0,79,30.01,10.0,NW,17.3,24.2,0.00,,Overcast,320,2012-11-01 13:53:00
10:53 AM,34.0,26.1,73,30.03,10.0,NW,17.3,-,N/A,,Overcast,320,2012-11-01 15:53:00
11:53 AM,35.1,25.0,67,30.03,10.0,NNW,16.1,-,N/A,,Overcast,340,2012-11-01 16:53:00
12:53 PM,35.1,25.0,67,30.03,10.0,NW,15.0,23.0,N/A,,Overcast,320,2012-11-01 17:53:00
1:53 PM,36.0,24.1,62,30.03,10.0,NW,12.7,-,N/A,,Overcast,320,2012-11-01 18:53:00
2:23 PM,37.4,24.8,60,29.97,10.0,NNW,15.0,24.2,N/A,,Overcast,330,2012-11-01 19:23:00
2:53 PM,35.1,23.0,61,30.02,10.0,NNW,13.8,-,N/A,,Mostly Cloudy,340,2012-11-01 19:53:00
3:18 PM,35.6,23.0,60,29.98,10.0,NNW,16.1,-,N/A,,Overcast,330,2012-11-01 20:18:00
3:53 PM,34.0,23.0,64,30.04,10.0,NW,15.0,21.9,N/A,,Overcast,320,2012-11-01 20:53:00
4:53 PM,33.1,21.9,64,30.06,10.0,North,11.5,-,N/A,,Overcast,360,2012-11-01 21:53:00
5:53 PM,32.0,23.0,69,30.09,10.0,NNW,12.7,-,N/A,,Overcast,330,2012-11-01 22:53:00
6:53 PM,32.0,23.0,69,30.09,10.0,NNW,13.8,-,N/A,,Overcast,330,2012-11-01 23:53:00
7:53 PM,32.0,23.0,69,30.09,10.0,NNW,12.7,-,N/A,,Overcast,340,2012-11-02 00:53:00
8:53 PM,30.9,23.0,72,30.10,10.0,NNW,13.8,23.0,N/A,,Overcast,340,2012-11-02 01:53:00
9:53 PM,30.9,24.1,76,30.11,10.0,North,13.8,-,N/A,,Overcast,350,2012-11-02 02:53:00
10:53 PM,30.9,23.0,72,30.12,10.0,North,9.2,-,N/A,,Overcast,350,2012-11-02 03:53:00
11:53 PM,30.0,21.9,72,30.13,10.0,North,10.4,-,N/A,,Overcast,350,2012-11-02 04:53:00